sensor_id;sensor_type;location;lat;lon;timestamp;P1;durP1;ratioP1;P2;durP2;ratioP2
58760;SDS011;44529;47.464;19.014;2023-05-08T00:01:32;5.53;;;5.03;;
58760;SDS011;44529;47.464;19.014;2023-05-08T00:04:35;5.30;;;4.80;;
58760;SDS011;44529;47.464;19.014;2023-05-08T00:07:37;8.48;;;5.03;;
58760;SDS011;44529;47.464;19.014;2023-05-08T00:10:40;5.55;;;4.57;;
58760;SDS011;44529;47.464;19.014;2023-05-08T00:13:42;7.05;;;5.03;;
58760;SDS011;44529;47.464;19.014;2023-05-08T00:16:44;5.28;;;4.85;;
58760;SDS011;44529;47.464;19.014;2023-05-08T00:19:47;5.43;;;4.93;;
58760;SDS011;44529;47.464;19.014;2023-05-08T00:22:50;5.05;;;4.65;;
58760;SDS011;44529;47.464;19.014;2023-05-08T00:25:52;5.85;;;5.20;;
58760;SDS011;44529;47.464;19.014;2023-05-08T00:28:54;5.43;;;4.93;;
58760;SDS011;44529;47.464;19.014;2023-05-08T00:31:57;5.62;;;5.03;;
58760;SDS011;44529;47.464;19.014;2023-05-08T00:34:59;6.10;;;4.90;;
58760;SDS011;44529;47.464;19.014;2023-05-08T00:38:01;5.55;;;5.10;;
58760;SDS011;44529;47.464;19.014;2023-05-08T00:41:04;7.05;;;5.37;;
58760;SDS011;44529;47.464;19.014;2023-05-08T00:44:06;5.57;;;5.07;;
58760;SDS011;44529;47.464;19.014;2023-05-08T00:47:09;5.20;;;4.80;;
58760;SDS011;44529;47.464;19.014;2023-05-08T00:50:11;6.53;;;4.95;;
58760;SDS011;44529;47.464;19.014;2023-05-08T00:53:15;6.12;;;5.20;;
58760;SDS011;44529;47.464;19.014;2023-05-08T00:56:18;5.07;;;4.57;;
58760;SDS011;44529;47.464;19.014;2023-05-08T00:59:22;6.75;;;5.50;;
58760;SDS011;44529;47.464;19.014;2023-05-08T01:02:25;6.18;;;5.20;;
58760;SDS011;44529;47.464;19.014;2023-05-08T01:05:28;5.00;;;4.55;;
58760;SDS011;44529;47.464;19.014;2023-05-08T01:08:31;7.12;;;5.28;;
58760;SDS011;44529;47.464;19.014;2023-05-08T01:11:38;6.00;;;5.35;;
58760;SDS011;44529;47.464;19.014;2023-05-08T01:14:52;6.93;;;5.03;;
58760;SDS011;44529;47.464;19.014;2023-05-08T01:35:20;8.10;;;5.90;;
58760;SDS011;44529;47.464;19.014;2023-05-08T01:38:32;6.60;;;6.00;;
58760;SDS011;44529;47.464;19.014;2023-05-08T01:41:55;6.72;;;5.37;;
58760;SDS011;44529;47.464;19.014;2023-05-08T01:45:04;6.47;;;5.68;;
58760;SDS011;44529;47.464;19.014;2023-05-08T01:48:18;5.85;;;5.30;;
58760;SDS011;44529;47.464;19.014;2023-05-08T01:51:26;5.87;;;5.37;;
58760;SDS011;44529;47.464;19.014;2023-05-08T01:54:35;6.03;;;5.50;;
58760;SDS011;44529;47.464;19.014;2023-05-08T01:57:45;9.60;;;5.82;;
58760;SDS011;44529;47.464;19.014;2023-05-08T02:00:50;6.28;;;5.68;;
58760;SDS011;44529;47.464;19.014;2023-05-08T02:03:54;6.15;;;5.55;;
58760;SDS011;44529;47.464;19.014;2023-05-08T02:06:58;7.25;;;5.37;;
58760;SDS011;44529;47.464;19.014;2023-05-08T02:10:02;6.15;;;5.65;;
58760;SDS011;44529;47.464;19.014;2023-05-08T02:13:05;6.30;;;5.70;;
58760;SDS011;44529;47.464;19.014;2023-05-08T02:16:10;7.07;;;5.90;;
58760;SDS011;44529;47.464;19.014;2023-05-08T02:19:13;7.28;;;5.90;;
58760;SDS011;44529;47.464;19.014;2023-05-08T02:22:17;8.65;;;5.75;;
58760;SDS011;44529;47.464;19.014;2023-05-08T02:25:22;6.05;;;5.45;;
58760;SDS011;44529;47.464;19.014;2023-05-08T02:28:26;8.55;;;6.15;;
58760;SDS011;44529;47.464;19.014;2023-05-08T02:31:32;8.18;;;5.70;;
58760;SDS011;44529;47.464;19.014;2023-05-08T02:34:36;6.10;;;5.60;;
58760;SDS011;44529;47.464;19.014;2023-05-08T02:37:47;6.50;;;5.90;;
58760;SDS011;44529;47.464;19.014;2023-05-08T02:40:53;7.05;;;5.68;;
58760;SDS011;44529;47.464;19.014;2023-05-08T02:43:59;6.07;;;5.53;;
58760;SDS011;44529;47.464;19.014;2023-05-08T02:50:57;6.55;;;5.97;;
58760;SDS011;44529;47.464;19.014;2023-05-08T02:53:45;6.82;;;5.20;;
58760;SDS011;44529;47.464;19.014;2023-05-08T03:00:04;6.15;;;5.55;;
58760;SDS011;44529;47.464;19.014;2023-05-08T03:03:25;6.70;;;5.68;;
58760;SDS011;44529;47.464;19.014;2023-05-08T03:06:51;6.20;;;5.60;;
58760;SDS011;44529;47.464;19.014;2023-05-08T03:09:59;6.12;;;5.32;;
58760;SDS011;44529;47.464;19.014;2023-05-08T03:13:06;6.15;;;5.55;;
58760;SDS011;44529;47.464;19.014;2023-05-08T03:16:11;8.68;;;5.72;;
58760;SDS011;44529;47.464;19.014;2023-05-08T03:19:21;8.55;;;5.90;;
58760;SDS011;44529;47.464;19.014;2023-05-08T03:22:28;6.87;;;6.20;;
58760;SDS011;44529;47.464;19.014;2023-05-08T03:25:33;7.03;;;6.12;;
58760;SDS011;44529;47.464;19.014;2023-05-08T03:28:37;7.78;;;5.95;;
58760;SDS011;44529;47.464;19.014;2023-05-08T03:31:41;6.37;;;5.70;;
58760;SDS011;44529;47.464;19.014;2023-05-08T03:34:44;8.48;;;6.47;;
58760;SDS011;44529;47.464;19.014;2023-05-08T03:37:48;6.57;;;5.85;;
58760;SDS011;44529;47.464;19.014;2023-05-08T03:40:51;8.73;;;6.00;;
58760;SDS011;44529;47.464;19.014;2023-05-08T03:43:54;8.52;;;6.25;;
58760;SDS011;44529;47.464;19.014;2023-05-08T03:46:57;7.97;;;6.07;;
58760;SDS011;44529;47.464;19.014;2023-05-08T03:50:01;10.02;;;6.60;;
58760;SDS011;44529;47.464;19.014;2023-05-08T03:53:04;7.22;;;6.07;;
58760;SDS011;44529;47.464;19.014;2023-05-08T03:56:07;7.43;;;6.22;;
58760;SDS011;44529;47.464;19.014;2023-05-08T03:59:16;7.03;;;6.35;;
58760;SDS011;44529;47.464;19.014;2023-05-08T04:02:42;7.87;;;6.32;;
58760;SDS011;44529;47.464;19.014;2023-05-08T04:05:50;10.45;;;7.12;;
58760;SDS011;44529;47.464;19.014;2023-05-08T04:09:00;10.40;;;7.18;;
58760;SDS011;44529;47.464;19.014;2023-05-08T04:15:34;8.27;;;7.22;;
58760;SDS011;44529;47.464;19.014;2023-05-08T04:18:42;12.55;;;7.55;;
58760;SDS011;44529;47.464;19.014;2023-05-08T04:21:47;9.68;;;7.55;;
58760;SDS011;44529;47.464;19.014;2023-05-08T04:24:52;10.68;;;6.85;;
58760;SDS011;44529;47.464;19.014;2023-05-08T04:28:00;8.70;;;7.10;;
58760;SDS011;44529;47.464;19.014;2023-05-08T04:31:04;7.68;;;6.75;;
58760;SDS011;44529;47.464;19.014;2023-05-08T04:34:06;8.77;;;7.30;;
58760;SDS011;44529;47.464;19.014;2023-05-08T04:37:20;8.35;;;7.12;;
58760;SDS011;44529;47.464;19.014;2023-05-08T04:40:28;4.65;;;4.15;;
58760;SDS011;44529;47.464;19.014;2023-05-08T04:43:30;8.93;;;5.10;;
58760;SDS011;44529;47.464;19.014;2023-05-08T04:46:33;4.47;;;3.17;;
58760;SDS011;44529;47.464;19.014;2023-05-08T04:49:36;3.20;;;2.90;;
58760;SDS011;44529;47.464;19.014;2023-05-08T04:52:38;2.72;;;2.53;;
58760;SDS011;44529;47.464;19.014;2023-05-08T04:55:42;4.82;;;2.45;;
58760;SDS011;44529;47.464;19.014;2023-05-08T04:58:44;2.90;;;2.70;;
58760;SDS011;44529;47.464;19.014;2023-05-08T05:01:47;3.30;;;2.42;;
58760;SDS011;44529;47.464;19.014;2023-05-08T05:04:49;2.72;;;2.53;;
58760;SDS011;44529;47.464;19.014;2023-05-08T05:07:52;2.50;;;2.30;;
58760;SDS011;44529;47.464;19.014;2023-05-08T05:10:54;2.45;;;2.25;;
58760;SDS011;44529;47.464;19.014;2023-05-08T05:13:57;2.47;;;2.10;;
58760;SDS011;44529;47.464;19.014;2023-05-08T05:16:59;2.67;;;2.08;;
58760;SDS011;44529;47.464;19.014;2023-05-08T05:20:03;2.50;;;2.30;;
58760;SDS011;44529;47.464;19.014;2023-05-08T05:23:07;2.45;;;2.25;;
58760;SDS011;44529;47.464;19.014;2023-05-08T05:26:09;4.47;;;2.10;;
58760;SDS011;44529;47.464;19.014;2023-05-08T05:29:12;3.00;;;2.67;;
58760;SDS011;44529;47.464;19.014;2023-05-08T05:32:15;2.60;;;2.35;;
58760;SDS011;44529;47.464;19.014;2023-05-08T05:35:17;3.22;;;2.40;;
58760;SDS011;44529;47.464;19.014;2023-05-08T05:38:20;23.40;;;3.30;;
58760;SDS011;44529;47.464;19.014;2023-05-08T05:41:22;4.37;;;2.58;;
58760;SDS011;44529;47.464;19.014;2023-05-08T05:44:25;2.65;;;2.45;;
58760;SDS011;44529;47.464;19.014;2023-05-08T05:47:28;3.90;;;3.22;;
58760;SDS011;44529;47.464;19.014;2023-05-08T05:50:31;2.40;;;2.20;;
58760;SDS011;44529;47.464;19.014;2023-05-08T05:53:34;3.90;;;2.05;;
58760;SDS011;44529;47.464;19.014;2023-05-08T05:56:36;2.87;;;1.75;;
58760;SDS011;44529;47.464;19.014;2023-05-08T05:59:39;2.15;;;1.95;;
58760;SDS011;44529;47.464;19.014;2023-05-08T06:02:42;3.75;;;1.70;;
58760;SDS011;44529;47.464;19.014;2023-05-08T06:05:46;2.37;;;2.17;;
58760;SDS011;44529;47.464;19.014;2023-05-08T06:08:48;2.80;;;2.15;;
58760;SDS011;44529;47.464;19.014;2023-05-08T06:11:51;2.10;;;1.90;;
58760;SDS011;44529;47.464;19.014;2023-05-08T06:14:53;2.95;;;1.92;;
58760;SDS011;44529;47.464;19.014;2023-05-08T06:17:56;2.40;;;2.20;;
58760;SDS011;44529;47.464;19.014;2023-05-08T06:20:59;2.28;;;2.08;;
58760;SDS011;44529;47.464;19.014;2023-05-08T06:24:01;5.20;;;1.80;;
58760;SDS011;44529;47.464;19.014;2023-05-08T06:27:04;1.83;;;1.60;;
58760;SDS011;44529;47.464;19.014;2023-05-08T06:30:07;2.03;;;1.83;;
58760;SDS011;44529;47.464;19.014;2023-05-08T06:33:11;2.25;;;2.05;;
58760;SDS011;44529;47.464;19.014;2023-05-08T06:36:14;2.05;;;1.55;;
58760;SDS011;44529;47.464;19.014;2023-05-08T06:39:16;3.25;;;1.95;;
58760;SDS011;44529;47.464;19.014;2023-05-08T06:42:19;3.65;;;1.58;;
58760;SDS011;44529;47.464;19.014;2023-05-08T06:45:21;2.92;;;1.77;;
58760;SDS011;44529;47.464;19.014;2023-05-08T06:48:24;2.25;;;2.05;;
58760;SDS011;44529;47.464;19.014;2023-05-08T06:51:29;2.37;;;1.98;;
58760;SDS011;44529;47.464;19.014;2023-05-08T06:54:32;3.40;;;1.60;;
58760;SDS011;44529;47.464;19.014;2023-05-08T06:57:34;3.00;;;1.83;;
58760;SDS011;44529;47.464;19.014;2023-05-08T07:00:37;2.78;;;1.80;;
58760;SDS011;44529;47.464;19.014;2023-05-08T07:03:39;2.28;;;1.70;;
58760;SDS011;44529;47.464;19.014;2023-05-08T07:06:42;1.87;;;1.77;;
58760;SDS011;44529;47.464;19.014;2023-05-08T07:09:44;4.47;;;1.98;;
58760;SDS011;44529;47.464;19.014;2023-05-08T07:12:47;1.65;;;1.55;;
58760;SDS011;44529;47.464;19.014;2023-05-08T07:15:50;1.65;;;1.55;;
58760;SDS011;44529;47.464;19.014;2023-05-08T07:18:53;2.28;;;1.85;;
58760;SDS011;44529;47.464;19.014;2023-05-08T07:21:55;3.45;;;2.15;;
58760;SDS011;44529;47.464;19.014;2023-05-08T07:24:58;2.25;;;1.90;;
58760;SDS011;44529;47.464;19.014;2023-05-08T07:28:00;1.83;;;1.73;;
58760;SDS011;44529;47.464;19.014;2023-05-08T07:31:03;1.85;;;1.75;;
58760;SDS011;44529;47.464;19.014;2023-05-08T07:34:09;3.00;;;1.45;;
58760;SDS011;44529;47.464;19.014;2023-05-08T07:37:12;2.10;;;1.60;;
58760;SDS011;44529;47.464;19.014;2023-05-08T07:40:14;1.95;;;1.80;;
58760;SDS011;44529;47.464;19.014;2023-05-08T07:43:17;3.83;;;1.65;;
58760;SDS011;44529;47.464;19.014;2023-05-08T07:46:19;2.65;;;1.90;;
58760;SDS011;44529;47.464;19.014;2023-05-08T07:49:22;11.57;;;2.25;;
58760;SDS011;44529;47.464;19.014;2023-05-08T07:52:25;2.55;;;1.60;;
58760;SDS011;44529;47.464;19.014;2023-05-08T07:55:28;9.70;;;5.05;;
58760;SDS011;44529;47.464;19.014;2023-05-08T07:58:30;2.20;;;1.42;;
58760;SDS011;44529;47.464;19.014;2023-05-08T08:01:32;2.12;;;1.40;;
58760;SDS011;44529;47.464;19.014;2023-05-08T08:04:35;5.43;;;1.55;;
58760;SDS011;44529;47.464;19.014;2023-05-08T08:07:37;1.52;;;1.42;;
58760;SDS011;44529;47.464;19.014;2023-05-08T08:10:40;1.70;;;1.60;;
58760;SDS011;44529;47.464;19.014;2023-05-08T08:13:42;1.60;;;1.33;;
58760;SDS011;44529;47.464;19.014;2023-05-08T08:16:45;4.85;;;1.40;;
58760;SDS011;44529;47.464;19.014;2023-05-08T08:19:47;2.55;;;1.73;;
58760;SDS011;44529;47.464;19.014;2023-05-08T08:22:50;1.92;;;1.30;;
58760;SDS011;44529;47.464;19.014;2023-05-08T08:25:52;5.20;;;1.40;;
58760;SDS011;44529;47.464;19.014;2023-05-08T08:28:55;1.33;;;1.23;;
58760;SDS011;44529;47.464;19.014;2023-05-08T08:31:57;3.58;;;1.60;;
58760;SDS011;44529;47.464;19.014;2023-05-08T08:35:00;1.45;;;1.35;;
58760;SDS011;44529;47.464;19.014;2023-05-08T08:38:02;4.07;;;1.45;;
58760;SDS011;44529;47.464;19.014;2023-05-08T08:41:05;2.33;;;1.58;;
58760;SDS011;44529;47.464;19.014;2023-05-08T08:44:08;1.70;;;1.23;;
58760;SDS011;44529;47.464;19.014;2023-05-08T08:47:11;1.67;;;1.37;;
58760;SDS011;44529;47.464;19.014;2023-05-08T08:50:15;3.90;;;1.70;;
58760;SDS011;44529;47.464;19.014;2023-05-08T08:53:24;2.40;;;1.40;;
58760;SDS011;44529;47.464;19.014;2023-05-08T08:56:28;1.20;;;1.20;;
58760;SDS011;44529;47.464;19.014;2023-05-08T08:59:32;2.62;;;1.20;;
58760;SDS011;44529;47.464;19.014;2023-05-08T09:02:35;1.73;;;1.17;;
58760;SDS011;44529;47.464;19.014;2023-05-08T09:05:38;4.62;;;1.27;;
58760;SDS011;44529;47.464;19.014;2023-05-08T09:08:40;1.05;;;1.05;;
58760;SDS011;44529;47.464;19.014;2023-05-08T09:11:45;2.97;;;1.00;;
58760;SDS011;44529;47.464;19.014;2023-05-08T09:14:47;1.10;;;1.00;;
58760;SDS011;44529;47.464;19.014;2023-05-08T09:17:51;1.85;;;0.93;;
58760;SDS011;44529;47.464;19.014;2023-05-08T09:20:53;2.78;;;1.17;;
58760;SDS011;44529;47.464;19.014;2023-05-08T09:23:59;1.20;;;1.08;;
58760;SDS011;44529;47.464;19.014;2023-05-08T09:27:03;3.60;;;0.90;;
58760;SDS011;44529;47.464;19.014;2023-05-08T09:30:21;1.98;;;0.80;;
58760;SDS011;44529;47.464;19.014;2023-05-08T09:33:24;1.35;;;0.70;;
58760;SDS011;44529;47.464;19.014;2023-05-08T09:36:28;2.78;;;0.57;;
58760;SDS011;44529;47.464;19.014;2023-05-08T09:39:32;5.55;;;0.82;;
58760;SDS011;44529;47.464;19.014;2023-05-08T09:42:38;1.10;;;0.70;;
58760;SDS011;44529;47.464;19.014;2023-05-08T09:45:41;2.83;;;0.70;;
58760;SDS011;44529;47.464;19.014;2023-05-08T09:48:43;0.60;;;0.60;;
58760;SDS011;44529;47.464;19.014;2023-05-08T09:51:51;1.80;;;0.57;;
58760;SDS011;44529;47.464;19.014;2023-05-08T09:55:06;1.62;;;0.50;;
58760;SDS011;44529;47.464;19.014;2023-05-08T09:58:10;0.47;;;0.47;;
58760;SDS011;44529;47.464;19.014;2023-05-08T10:01:29;0.75;;;0.55;;
58760;SDS011;44529;47.464;19.014;2023-05-08T10:04:34;0.62;;;0.30;;
58760;SDS011;44529;47.464;19.014;2023-05-08T10:07:37;2.97;;;0.60;;
58760;SDS011;44529;47.464;19.014;2023-05-08T10:10:40;3.80;;;0.88;;
58760;SDS011;44529;47.464;19.014;2023-05-08T10:13:45;2.12;;;0.57;;
58760;SDS011;44529;47.464;19.014;2023-05-08T10:16:50;1.50;;;0.32;;
58760;SDS011;44529;47.464;19.014;2023-05-08T10:19:54;1.23;;;0.70;;
58760;SDS011;44529;47.464;19.014;2023-05-08T10:23:01;1.27;;;0.50;;
58760;SDS011;44529;47.464;19.014;2023-05-08T10:26:15;2.20;;;0.60;;
58760;SDS011;44529;47.464;19.014;2023-05-08T10:29:27;1.60;;;0.55;;
58760;SDS011;44529;47.464;19.014;2023-05-08T10:32:39;3.35;;;0.50;;
58760;SDS011;44529;47.464;19.014;2023-05-08T10:35:45;2.15;;;0.50;;
58760;SDS011;44529;47.464;19.014;2023-05-08T10:38:47;1.95;;;0.50;;
58760;SDS011;44529;47.464;19.014;2023-05-08T10:41:51;1.70;;;0.52;;
58760;SDS011;44529;47.464;19.014;2023-05-08T10:44:53;0.75;;;0.60;;
58760;SDS011;44529;47.464;19.014;2023-05-08T10:48:04;0.55;;;0.55;;
58760;SDS011;44529;47.464;19.014;2023-05-08T10:54:55;0.52;;;0.52;;
58760;SDS011;44529;47.464;19.014;2023-05-08T10:58:11;1.30;;;0.43;;
58760;SDS011;44529;47.464;19.014;2023-05-08T11:01:14;1.40;;;0.50;;
58760;SDS011;44529;47.464;19.014;2023-05-08T11:04:23;0.43;;;0.43;;
58760;SDS011;44529;47.464;19.014;2023-05-08T11:07:29;1.30;;;0.60;;
58760;SDS011;44529;47.464;19.014;2023-05-08T11:17:08;0.68;;;0.43;;
58760;SDS011;44529;47.464;19.014;2023-05-08T11:20:12;1.95;;;0.60;;
58760;SDS011;44529;47.464;19.014;2023-05-08T11:23:24;1.37;;;0.45;;
58760;SDS011;44529;47.464;19.014;2023-05-08T11:26:37;1.10;;;0.47;;
58760;SDS011;44529;47.464;19.014;2023-05-08T11:29:43;0.68;;;0.50;;
58760;SDS011;44529;47.464;19.014;2023-05-08T11:33:10;1.58;;;0.43;;
58760;SDS011;44529;47.464;19.014;2023-05-08T11:36:15;0.40;;;0.40;;
58760;SDS011;44529;47.464;19.014;2023-05-08T11:39:24;3.92;;;0.60;;
58760;SDS011;44529;47.464;19.014;2023-05-08T11:45:28;0.50;;;0.50;;
58760;SDS011;44529;47.464;19.014;2023-05-08T11:48:32;0.95;;;0.70;;
58760;SDS011;44529;47.464;19.014;2023-05-08T11:51:35;1.55;;;0.40;;
58760;SDS011;44529;47.464;19.014;2023-05-08T11:54:39;0.55;;;0.50;;
58760;SDS011;44529;47.464;19.014;2023-05-08T11:57:41;0.65;;;0.65;;
58760;SDS011;44529;47.464;19.014;2023-05-08T12:00:44;0.30;;;0.30;;
58760;SDS011;44529;47.464;19.014;2023-05-08T12:03:48;1.85;;;0.60;;
58760;SDS011;44529;47.464;19.014;2023-05-08T12:07:01;0.30;;;0.30;;
58760;SDS011;44529;47.464;19.014;2023-05-08T12:10:04;3.05;;;0.60;;
58760;SDS011;44529;47.464;19.014;2023-05-08T12:16:22;0.80;;;0.60;;
58760;SDS011;44529;47.464;19.014;2023-05-08T12:19:26;2.95;;;0.60;;
58760;SDS011;44529;47.464;19.014;2023-05-08T12:22:28;1.70;;;0.90;;
58760;SDS011;44529;47.464;19.014;2023-05-08T12:25:30;1.75;;;0.90;;
58760;SDS011;44529;47.464;19.014;2023-05-08T12:28:33;9.00;;;1.05;;
58760;SDS011;44529;47.464;19.014;2023-05-08T12:31:36;1.25;;;0.47;;
58760;SDS011;44529;47.464;19.014;2023-05-08T12:34:38;3.40;;;0.82;;
58760;SDS011;44529;47.464;19.014;2023-05-08T12:37:41;1.65;;;0.55;;
58760;SDS011;44529;47.464;19.014;2023-05-08T12:40:44;1.15;;;0.43;;
58760;SDS011;44529;47.464;19.014;2023-05-08T12:43:50;2.17;;;0.70;;
58760;SDS011;44529;47.464;19.014;2023-05-08T12:46:53;1.75;;;0.47;;
58760;SDS011;44529;47.464;19.014;2023-05-08T12:49:56;5.62;;;0.70;;
58760;SDS011;44529;47.464;19.014;2023-05-08T12:53:02;1.98;;;0.47;;
58760;SDS011;44529;47.464;19.014;2023-05-08T12:56:05;2.40;;;0.70;;
58760;SDS011;44529;47.464;19.014;2023-05-08T12:59:08;0.80;;;0.60;;
58760;SDS011;44529;47.464;19.014;2023-05-08T13:02:11;1.12;;;0.50;;
58760;SDS011;44529;47.464;19.014;2023-05-08T13:05:22;0.62;;;0.50;;
58760;SDS011;44529;47.464;19.014;2023-05-08T13:11:33;0.60;;;0.50;;
58760;SDS011;44529;47.464;19.014;2023-05-08T13:14:35;2.05;;;0.75;;
58760;SDS011;44529;47.464;19.014;2023-05-08T13:17:38;4.87;;;1.35;;
58760;SDS011;44529;47.464;19.014;2023-05-08T13:20:41;1.62;;;0.45;;
58760;SDS011;44529;47.464;19.014;2023-05-08T13:23:44;2.00;;;0.57;;
58760;SDS011;44529;47.464;19.014;2023-05-08T13:26:46;2.83;;;0.70;;
58760;SDS011;44529;47.464;19.014;2023-05-08T13:29:49;1.95;;;0.70;;
58760;SDS011;44529;47.464;19.014;2023-05-08T13:32:51;0.88;;;0.88;;
58760;SDS011;44529;47.464;19.014;2023-05-08T13:35:54;1.17;;;0.60;;
58760;SDS011;44529;47.464;19.014;2023-05-08T13:38:57;3.28;;;0.80;;
58760;SDS011;44529;47.464;19.014;2023-05-08T13:41:59;3.60;;;0.70;;
58760;SDS011;44529;47.464;19.014;2023-05-08T13:45:02;1.60;;;0.57;;
58760;SDS011;44529;47.464;19.014;2023-05-08T13:48:05;2.85;;;0.82;;
58760;SDS011;44529;47.464;19.014;2023-05-08T13:51:08;2.17;;;1.00;;
58760;SDS011;44529;47.464;19.014;2023-05-08T13:54:10;2.78;;;0.80;;
58760;SDS011;44529;47.464;19.014;2023-05-08T13:57:12;3.50;;;0.73;;
58760;SDS011;44529;47.464;19.014;2023-05-08T14:00:15;1.58;;;0.40;;
58760;SDS011;44529;47.464;19.014;2023-05-08T14:03:17;0.43;;;0.40;;
58760;SDS011;44529;47.464;19.014;2023-05-08T14:06:20;1.37;;;0.62;;
58760;SDS011;44529;47.464;19.014;2023-05-08T14:09:22;2.80;;;0.77;;
58760;SDS011;44529;47.464;19.014;2023-05-08T14:12:25;2.45;;;0.70;;
58760;SDS011;44529;47.464;19.014;2023-05-08T14:15:27;0.73;;;0.70;;
58760;SDS011;44529;47.464;19.014;2023-05-08T14:18:38;1.35;;;0.60;;
58760;SDS011;44529;47.464;19.014;2023-05-08T14:21:41;2.45;;;1.00;;
58760;SDS011;44529;47.464;19.014;2023-05-08T14:24:44;3.58;;;0.50;;
58760;SDS011;44529;47.464;19.014;2023-05-08T14:27:47;0.95;;;0.45;;
58760;SDS011;44529;47.464;19.014;2023-05-08T14:30:49;3.30;;;0.82;;
58760;SDS011;44529;47.464;19.014;2023-05-08T14:33:51;2.28;;;1.00;;
58760;SDS011;44529;47.464;19.014;2023-05-08T14:36:54;1.52;;;0.70;;
58760;SDS011;44529;47.464;19.014;2023-05-08T14:39:56;1.58;;;0.60;;
58760;SDS011;44529;47.464;19.014;2023-05-08T14:43:00;1.67;;;0.70;;
58760;SDS011;44529;47.464;19.014;2023-05-08T14:46:02;1.23;;;0.70;;
58760;SDS011;44529;47.464;19.014;2023-05-08T14:49:05;4.65;;;1.05;;
58760;SDS011;44529;47.464;19.014;2023-05-08T14:52:07;1.62;;;0.70;;
58760;SDS011;44529;47.464;19.014;2023-05-08T14:55:10;1.12;;;0.60;;
58760;SDS011;44529;47.464;19.014;2023-05-08T14:58:13;1.70;;;0.77;;
58760;SDS011;44529;47.464;19.014;2023-05-08T15:01:15;0.70;;;0.60;;
58760;SDS011;44529;47.464;19.014;2023-05-08T15:04:18;1.08;;;0.80;;
58760;SDS011;44529;47.464;19.014;2023-05-08T15:07:20;2.53;;;0.75;;
58760;SDS011;44529;47.464;19.014;2023-05-08T15:10:23;4.37;;;0.80;;
58760;SDS011;44529;47.464;19.014;2023-05-08T15:13:25;1.52;;;1.05;;
58760;SDS011;44529;47.464;19.014;2023-05-08T15:16:28;2.65;;;0.80;;
58760;SDS011;44529;47.464;19.014;2023-05-08T15:19:31;0.80;;;0.60;;
58760;SDS011;44529;47.464;19.014;2023-05-08T15:22:33;0.50;;;0.50;;
58760;SDS011;44529;47.464;19.014;2023-05-08T15:25:35;1.10;;;1.00;;
58760;SDS011;44529;47.464;19.014;2023-05-08T15:28:38;1.60;;;0.75;;
58760;SDS011;44529;47.464;19.014;2023-05-08T15:31:42;2.35;;;0.98;;
58760;SDS011;44529;47.464;19.014;2023-05-08T15:34:44;1.60;;;0.70;;
58760;SDS011;44529;47.464;19.014;2023-05-08T15:37:47;2.67;;;0.88;;
58760;SDS011;44529;47.464;19.014;2023-05-08T15:40:49;3.83;;;1.00;;
58760;SDS011;44529;47.464;19.014;2023-05-08T15:43:51;3.72;;;0.95;;
58760;SDS011;44529;47.464;19.014;2023-05-08T15:46:53;0.93;;;0.93;;
58760;SDS011;44529;47.464;19.014;2023-05-08T15:49:56;2.37;;;0.85;;
58760;SDS011;44529;47.464;19.014;2023-05-08T15:52:58;0.93;;;0.93;;
58760;SDS011;44529;47.464;19.014;2023-05-08T15:56:03;1.10;;;1.00;;
58760;SDS011;44529;47.464;19.014;2023-05-08T15:59:06;1.48;;;0.90;;
58760;SDS011;44529;47.464;19.014;2023-05-08T16:02:08;1.90;;;1.02;;
58760;SDS011;44529;47.464;19.014;2023-05-08T16:05:11;0.80;;;0.80;;
58760;SDS011;44529;47.464;19.014;2023-05-08T16:08:14;2.35;;;0.93;;
58760;SDS011;44529;47.464;19.014;2023-05-08T16:11:16;1.00;;;1.00;;
58760;SDS011;44529;47.464;19.014;2023-05-08T16:14:18;1.50;;;1.40;;
58760;SDS011;44529;47.464;19.014;2023-05-08T16:17:21;1.87;;;1.00;;
58760;SDS011;44529;47.464;19.014;2023-05-08T16:20:23;3.17;;;0.80;;
58760;SDS011;44529;47.464;19.014;2023-05-08T16:23:26;1.10;;;1.00;;
58760;SDS011;44529;47.464;19.014;2023-05-08T16:26:28;2.30;;;1.05;;
58760;SDS011;44529;47.464;19.014;2023-05-08T16:29:31;1.30;;;1.17;;
58760;SDS011;44529;47.464;19.014;2023-05-08T16:32:33;1.00;;;1.00;;
58760;SDS011;44529;47.464;19.014;2023-05-08T16:35:35;2.58;;;1.20;;
58760;SDS011;44529;47.464;19.014;2023-05-08T16:38:38;1.48;;;1.37;;
58760;SDS011;44529;47.464;19.014;2023-05-08T16:41:40;3.05;;;1.27;;
58760;SDS011;44529;47.464;19.014;2023-05-08T16:44:42;4.43;;;1.42;;
58760;SDS011;44529;47.464;19.014;2023-05-08T16:47:45;2.25;;;1.45;;
58760;SDS011;44529;47.464;19.014;2023-05-08T16:50:47;4.87;;;1.40;;
58760;SDS011;44529;47.464;19.014;2023-05-08T16:53:50;2.67;;;1.60;;
58760;SDS011;44529;47.464;19.014;2023-05-08T16:56:52;2.62;;;1.50;;
58760;SDS011;44529;47.464;19.014;2023-05-08T16:59:54;3.47;;;1.55;;
58760;SDS011;44529;47.464;19.014;2023-05-08T17:02:57;5.90;;;1.83;;
58760;SDS011;44529;47.464;19.014;2023-05-08T17:05:59;3.33;;;1.65;;
58760;SDS011;44529;47.464;19.014;2023-05-08T17:09:06;2.55;;;1.50;;
58760;SDS011;44529;47.464;19.014;2023-05-08T17:12:09;5.40;;;2.00;;
58760;SDS011;44529;47.464;19.014;2023-05-08T17:15:11;1.92;;;1.62;;
58760;SDS011;44529;47.464;19.014;2023-05-08T17:18:14;3.85;;;2.03;;
58760;SDS011;44529;47.464;19.014;2023-05-08T17:21:16;4.25;;;1.30;;
58760;SDS011;44529;47.464;19.014;2023-05-08T17:24:19;2.03;;;1.90;;
58760;SDS011;44529;47.464;19.014;2023-05-08T17:27:21;7.05;;;2.25;;
58760;SDS011;44529;47.464;19.014;2023-05-08T17:30:23;3.20;;;1.90;;
58760;SDS011;44529;47.464;19.014;2023-05-08T17:33:27;4.90;;;2.03;;
58760;SDS011;44529;47.464;19.014;2023-05-08T17:36:30;2.58;;;2.05;;
58760;SDS011;44529;47.464;19.014;2023-05-08T17:39:32;1.90;;;1.80;;
58760;SDS011;44529;47.464;19.014;2023-05-08T17:42:34;5.57;;;2.50;;
58760;SDS011;44529;47.464;19.014;2023-05-08T17:45:37;2.17;;;1.98;;
58760;SDS011;44529;47.464;19.014;2023-05-08T17:48:39;4.03;;;1.92;;
58760;SDS011;44529;47.464;19.014;2023-05-08T17:51:41;4.07;;;2.08;;
58760;SDS011;44529;47.464;19.014;2023-05-08T17:54:44;3.08;;;1.90;;
58760;SDS011;44529;47.464;19.014;2023-05-08T17:57:46;3.47;;;2.10;;
58760;SDS011;44529;47.464;19.014;2023-05-08T18:00:49;2.40;;;1.92;;
58760;SDS011;44529;47.464;19.014;2023-05-08T18:03:52;4.75;;;1.95;;
58760;SDS011;44529;47.464;19.014;2023-05-08T18:06:54;3.37;;;2.10;;
58760;SDS011;44529;47.464;19.014;2023-05-08T18:09:57;3.55;;;2.15;;
58760;SDS011;44529;47.464;19.014;2023-05-08T18:12:59;2.58;;;2.37;;
58760;SDS011;44529;47.464;19.014;2023-05-08T18:16:01;3.20;;;2.25;;
58760;SDS011;44529;47.464;19.014;2023-05-08T18:19:04;3.00;;;2.20;;
58760;SDS011;44529;47.464;19.014;2023-05-08T18:22:06;5.37;;;2.37;;
58760;SDS011;44529;47.464;19.014;2023-05-08T18:25:09;4.28;;;2.28;;
58760;SDS011;44529;47.464;19.014;2023-05-08T18:28:12;5.85;;;3.47;;
58760;SDS011;44529;47.464;19.014;2023-05-08T18:31:14;2.53;;;2.33;;
58760;SDS011;44529;47.464;19.014;2023-05-08T18:34:17;3.05;;;2.40;;
58760;SDS011;44529;47.464;19.014;2023-05-08T18:37:19;4.30;;;2.50;;
58760;SDS011;44529;47.464;19.014;2023-05-08T18:40:22;3.78;;;2.78;;
58760;SDS011;44529;47.464;19.014;2023-05-08T18:43:24;2.80;;;2.60;;
58760;SDS011;44529;47.464;19.014;2023-05-08T18:46:27;2.85;;;2.58;;
58760;SDS011;44529;47.464;19.014;2023-05-08T18:49:29;4.82;;;2.78;;
58760;SDS011;44529;47.464;19.014;2023-05-08T18:52:32;4.65;;;2.90;;
58760;SDS011;44529;47.464;19.014;2023-05-08T18:55:34;5.47;;;3.40;;
58760;SDS011;44529;47.464;19.014;2023-05-08T18:58:37;3.85;;;2.85;;